sensor_id;sensor_type;location;lat;lon;timestamp;P1;durP1;ratioP1;P2;durP2;ratioP2
20000;SDS011;10161;41.188;-8.642;2022-09-09T00:01:37;12.77;;;11.47;;
20000;SDS011;10161;41.188;-8.642;2022-09-09T00:04:17;13.33;;;12.00;;
20000;SDS011;10161;41.188;-8.642;2022-09-09T00:06:52;13.37;;;11.97;;
20000;SDS011;10161;41.188;-8.642;2022-09-09T00:09:24;13.53;;;12.23;;
20000;SDS011;10161;41.188;-8.642;2022-09-09T00:11:54;12.73;;;11.40;;
20000;SDS011;10161;41.188;-8.642;2022-09-09T00:14:32;11.53;;;10.33;;
20000;SDS011;10161;41.188;-8.642;2022-09-09T00:17:02;11.00;;;9.83;;
20000;SDS011;10161;41.188;-8.642;2022-09-09T00:19:36;12.33;;;11.07;;
20000;SDS011;10161;41.188;-8.642;2022-09-09T00:22:12;11.87;;;10.67;;
20000;SDS011;10161;41.188;-8.642;2022-09-09T00:24:42;11.87;;;10.50;;
20000;SDS011;10161;41.188;-8.642;2022-09-09T00:27:16;11.83;;;10.63;;
20000;SDS011;10161;41.188;-8.642;2022-09-09T00:29:50;13.20;;;11.90;;
20000;SDS011;10161;41.188;-8.642;2022-09-09T00:32:19;14.07;;;12.67;;
20000;SDS011;10161;41.188;-8.642;2022-09-09T00:34:49;13.50;;;12.10;;
20000;SDS011;10161;41.188;-8.642;2022-09-09T00:37:19;15.53;;;13.90;;
20000;SDS011;10161;41.188;-8.642;2022-09-09T00:39:46;14.17;;;12.47;;
20000;SDS011;10161;41.188;-8.642;2022-09-09T00:42:15;15.53;;;13.30;;
20000;SDS011;10161;41.188;-8.642;2022-09-09T00:44:51;13.93;;;12.60;;
20000;SDS011;10161;41.188;-8.642;2022-09-09T00:47:30;14.00;;;12.50;;
20000;SDS011;10161;41.188;-8.642;2022-09-09T00:50:11;15.47;;;13.93;;
20000;SDS011;10161;41.188;-8.642;2022-09-09T00:52:46;19.10;;;15.40;;
20000;SDS011;10161;41.188;-8.642;2022-09-09T00:55:15;15.97;;;14.20;;
20000;SDS011;10161;41.188;-8.642;2022-09-09T00:57:44;19.73;;;16.07;;
20000;SDS011;10161;41.188;-8.642;2022-09-09T01:00:19;14.00;;;12.53;;
20000;SDS011;10161;41.188;-8.642;2022-09-09T01:02:52;14.10;;;12.07;;
20000;SDS011;10161;41.188;-8.642;2022-09-09T01:05:27;14.30;;;12.07;;
20000;SDS011;10161;41.188;-8.642;2022-09-09T01:08:00;11.60;;;10.37;;
20000;SDS011;10161;41.188;-8.642;2022-09-09T01:10:30;11.47;;;10.27;;
20000;SDS011;10161;41.188;-8.642;2022-09-09T01:13:02;14.30;;;12.80;;
20000;SDS011;10161;41.188;-8.642;2022-09-09T01:15:31;13.30;;;11.90;;
20000;SDS011;10161;41.188;-8.642;2022-09-09T01:18:00;12.10;;;10.63;;
20000;SDS011;10161;41.188;-8.642;2022-09-09T01:20:31;13.30;;;11.87;;
20000;SDS011;10161;41.188;-8.642;2022-09-09T01:23:16;15.80;;;13.50;;
20000;SDS011;10161;41.188;-8.642;2022-09-09T01:26:07;15.00;;;11.77;;
20000;SDS011;10161;41.188;-8.642;2022-09-09T01:28:39;12.10;;;10.80;;
20000;SDS011;10161;41.188;-8.642;2022-09-09T01:31:09;13.50;;;12.10;;
20000;SDS011;10161;41.188;-8.642;2022-09-09T01:33:38;11.67;;;9.97;;
20000;SDS011;10161;41.188;-8.642;2022-09-09T01:36:06;11.50;;;10.30;;
20000;SDS011;10161;41.188;-8.642;2022-09-09T01:38:34;11.23;;;10.03;;
20000;SDS011;10161;41.188;-8.642;2022-09-09T01:41:02;10.47;;;9.47;;
20000;SDS011;10161;41.188;-8.642;2022-09-09T01:43:31;12.80;;;11.60;;
20000;SDS011;10161;41.188;-8.642;2022-09-09T01:45:59;11.00;;;9.90;;
20000;SDS011;10161;41.188;-8.642;2022-09-09T01:48:27;12.17;;;10.67;;
20000;SDS011;10161;41.188;-8.642;2022-09-09T01:50:54;12.23;;;11.03;;
20000;SDS011;10161;41.188;-8.642;2022-09-09T01:53:22;11.03;;;9.93;;
20000;SDS011;10161;41.188;-8.642;2022-09-09T01:55:52;12.73;;;11.40;;
20000;SDS011;10161;41.188;-8.642;2022-09-09T01:58:28;12.53;;;11.23;;
20000;SDS011;10161;41.188;-8.642;2022-09-09T02:01:02;15.30;;;12.50;;
20000;SDS011;10161;41.188;-8.642;2022-09-09T02:03:32;12.93;;;11.13;;
20000;SDS011;10161;41.188;-8.642;2022-09-09T02:06:03;13.10;;;11.70;;
20000;SDS011;10161;41.188;-8.642;2022-09-09T02:08:36;14.47;;;11.77;;
20000;SDS011;10161;41.188;-8.642;2022-09-09T02:11:08;11.90;;;10.70;;
20000;SDS011;10161;41.188;-8.642;2022-09-09T02:13:40;10.40;;;9.40;;
20000;SDS011;10161;41.188;-8.642;2022-09-09T02:16:08;12.13;;;10.50;;
20000;SDS011;10161;41.188;-8.642;2022-09-09T02:18:38;12.90;;;11.13;;
20000;SDS011;10161;41.188;-8.642;2022-09-09T02:21:07;13.40;;;11.30;;
20000;SDS011;10161;41.188;-8.642;2022-09-09T02:23:35;15.50;;;10.20;;
20000;SDS011;10161;41.188;-8.642;2022-09-09T02:26:02;9.73;;;8.60;;
20000;SDS011;10161;41.188;-8.642;2022-09-09T02:28:30;8.90;;;7.60;;
20000;SDS011;10161;41.188;-8.642;2022-09-09T02:31:00;11.33;;;9.57;;
20000;SDS011;10161;41.188;-8.642;2022-09-09T02:33:28;10.10;;;8.10;;
20000;SDS011;10161;41.188;-8.642;2022-09-09T02:35:57;9.80;;;8.80;;
20000;SDS011;10161;41.188;-8.642;2022-09-09T02:38:28;11.60;;;9.70;;
20000;SDS011;10161;41.188;-8.642;2022-09-09T02:40:57;11.20;;;9.10;;
20000;SDS011;10161;41.188;-8.642;2022-09-09T02:43:24;8.47;;;7.57;;
20000;SDS011;10161;41.188;-8.642;2022-09-09T02:45:53;9.07;;;7.90;;
20000;SDS011;10161;41.188;-8.642;2022-09-09T02:48:26;9.20;;;7.97;;
20000;SDS011;10161;41.188;-8.642;2022-09-09T02:50:57;10.10;;;9.07;;
20000;SDS011;10161;41.188;-8.642;2022-09-09T02:53:29;9.77;;;8.50;;
20000;SDS011;10161;41.188;-8.642;2022-09-09T02:56:00;9.87;;;8.07;;
20000;SDS011;10161;41.188;-8.642;2022-09-09T02:58:30;9.20;;;7.70;;
20000;SDS011;10161;41.188;-8.642;2022-09-09T03:00:57;9.20;;;8.23;;
20000;SDS011;10161;41.188;-8.642;2022-09-09T03:03:27;10.63;;;8.83;;
20000;SDS011;10161;41.188;-8.642;2022-09-09T03:05:55;8.57;;;7.70;;
20000;SDS011;10161;41.188;-8.642;2022-09-09T03:08:22;7.80;;;7.00;;
20000;SDS011;10161;41.188;-8.642;2022-09-09T03:10:49;8.33;;;7.53;;
20000;SDS011;10161;41.188;-8.642;2022-09-09T03:13:19;7.80;;;7.00;;
20000;SDS011;10161;41.188;-8.642;2022-09-09T03:15:47;8.03;;;7.23;;
20000;SDS011;10161;41.188;-8.642;2022-09-09T03:18:14;8.67;;;7.63;;
20000;SDS011;10161;41.188;-8.642;2022-09-09T03:20:43;7.67;;;6.63;;
20000;SDS011;10161;41.188;-8.642;2022-09-09T03:23:11;9.23;;;8.20;;
20000;SDS011;10161;41.188;-8.642;2022-09-09T03:25:38;7.17;;;6.47;;
20000;SDS011;10161;41.188;-8.642;2022-09-09T03:28:05;7.67;;;6.67;;
20000;SDS011;10161;41.188;-8.642;2022-09-09T03:30:32;7.80;;;6.63;;
20000;SDS011;10161;41.188;-8.642;2022-09-09T03:32:59;9.40;;;7.20;;
20000;SDS011;10161;41.188;-8.642;2022-09-09T03:35:26;7.30;;;6.07;;
20000;SDS011;10161;41.188;-8.642;2022-09-09T03:37:54;5.90;;;5.40;;
20000;SDS011;10161;41.188;-8.642;2022-09-09T03:40:21;6.37;;;5.77;;
20000;SDS011;10161;41.188;-8.642;2022-09-09T03:42:48;7.33;;;6.30;;
20000;SDS011;10161;41.188;-8.642;2022-09-09T03:45:15;7.83;;;6.67;;
20000;SDS011;10161;41.188;-8.642;2022-09-09T03:47:42;7.10;;;6.30;;
20000;SDS011;10161;41.188;-8.642;2022-09-09T03:50:09;6.63;;;5.93;;
20000;SDS011;10161;41.188;-8.642;2022-09-09T03:52:36;7.43;;;6.73;;
20000;SDS011;10161;41.188;-8.642;2022-09-09T03:55:06;7.10;;;6.40;;
20000;SDS011;10161;41.188;-8.642;2022-09-09T03:57:33;7.20;;;6.53;;
20000;SDS011;10161;41.188;-8.642;2022-09-09T04:00:01;7.77;;;7.00;;
20000;SDS011;10161;41.188;-8.642;2022-09-09T04:02:29;6.40;;;5.80;;
20000;SDS011;10161;41.188;-8.642;2022-09-09T04:04:56;6.70;;;6.10;;
20000;SDS011;10161;41.188;-8.642;2022-09-09T04:07:25;7.27;;;6.57;;
20000;SDS011;10161;41.188;-8.642;2022-09-09T04:09:53;7.40;;;6.80;;
20000;SDS011;10161;41.188;-8.642;2022-09-09T04:12:22;7.37;;;6.67;;
20000;SDS011;10161;41.188;-8.642;2022-09-09T04:14:49;7.73;;;6.97;;
20000;SDS011;10161;41.188;-8.642;2022-09-09T04:17:15;9.30;;;8.40;;
20000;SDS011;10161;41.188;-8.642;2022-09-09T04:19:43;9.40;;;8.40;;
20000;SDS011;10161;41.188;-8.642;2022-09-09T04:22:10;10.03;;;9.03;;
20000;SDS011;10161;41.188;-8.642;2022-09-09T04:24:37;9.70;;;8.37;;
20000;SDS011;10161;41.188;-8.642;2022-09-09T04:27:04;8.47;;;7.67;;
20000;SDS011;10161;41.188;-8.642;2022-09-09T04:29:32;10.00;;;8.20;;
20000;SDS011;10161;41.188;-8.642;2022-09-09T04:31:59;9.63;;;8.60;;
20000;SDS011;10161;41.188;-8.642;2022-09-09T04:34:26;9.37;;;8.37;;
20000;SDS011;10161;41.188;-8.642;2022-09-09T04:36:54;10.23;;;8.77;;
20000;SDS011;10161;41.188;-8.642;2022-09-09T04:39:21;10.60;;;9.27;;
20000;SDS011;10161;41.188;-8.642;2022-09-09T04:41:48;11.27;;;10.10;;
20000;SDS011;10161;41.188;-8.642;2022-09-09T04:44:15;11.00;;;8.80;;
20000;SDS011;10161;41.188;-8.642;2022-09-09T04:46:43;10.83;;;9.73;;
20000;SDS011;10161;41.188;-8.642;2022-09-09T04:49:10;11.10;;;9.87;;
20000;SDS011;10161;41.188;-8.642;2022-09-09T04:51:37;12.00;;;10.80;;
20000;SDS011;10161;41.188;-8.642;2022-09-09T04:54:04;9.50;;;8.43;;
20000;SDS011;10161;41.188;-8.642;2022-09-09T04:56:31;10.60;;;9.50;;
20000;SDS011;10161;41.188;-8.642;2022-09-09T04:58:57;11.67;;;9.93;;
20000;SDS011;10161;41.188;-8.642;2022-09-09T05:01:27;12.10;;;9.23;;
20000;SDS011;10161;41.188;-8.642;2022-09-09T05:03:56;9.87;;;8.43;;
20000;SDS011;10161;41.188;-8.642;2022-09-09T05:06:23;11.03;;;9.90;;
20000;SDS011;10161;41.188;-8.642;2022-09-09T05:08:50;14.10;;;11.67;;
20000;SDS011;10161;41.188;-8.642;2022-09-09T05:11:18;12.47;;;10.60;;
20000;SDS011;10161;41.188;-8.642;2022-09-09T05:13:47;11.43;;;10.17;;
20000;SDS011;10161;41.188;-8.642;2022-09-09T05:16:15;12.30;;;10.00;;
20000;SDS011;10161;41.188;-8.642;2022-09-09T05:18:42;11.53;;;10.30;;
20000;SDS011;10161;41.188;-8.642;2022-09-09T05:21:11;12.27;;;10.20;;
20000;SDS011;10161;41.188;-8.642;2022-09-09T05:23:39;10.90;;;9.80;;
20000;SDS011;10161;41.188;-8.642;2022-09-09T05:26:07;12.60;;;11.40;;
20000;SDS011;10161;41.188;-8.642;2022-09-09T05:28:35;12.93;;;11.40;;
20000;SDS011;10161;41.188;-8.642;2022-09-09T05:31:03;11.93;;;10.63;;
20000;SDS011;10161;41.188;-8.642;2022-09-09T05:33:34;15.23;;;13.23;;
20000;SDS011;10161;41.188;-8.642;2022-09-09T05:36:03;13.37;;;11.90;;
20000;SDS011;10161;41.188;-8.642;2022-09-09T05:38:32;14.70;;;13.17;;
20000;SDS011;10161;41.188;-8.642;2022-09-09T05:41:00;18.80;;;16.17;;
20000;SDS011;10161;41.188;-8.642;2022-09-09T05:43:27;20.90;;;16.47;;
20000;SDS011;10161;41.188;-8.642;2022-09-09T05:46:01;18.67;;;16.73;;
20000;SDS011;10161;41.188;-8.642;2022-09-09T05:48:29;16.37;;;14.63;;
20000;SDS011;10161;41.188;-8.642;2022-09-09T05:50:57;15.93;;;14.23;;
20000;SDS011;10161;41.188;-8.642;2022-09-09T05:53:24;13.50;;;12.10;;
20000;SDS011;10161;41.188;-8.642;2022-09-09T05:55:59;14.17;;;12.67;;
20000;SDS011;10161;41.188;-8.642;2022-09-09T05:58:28;17.53;;;12.13;;
20000;SDS011;10161;41.188;-8.642;2022-09-09T06:01:03;13.90;;;12.50;;
20000;SDS011;10161;41.188;-8.642;2022-09-09T06:03:30;15.90;;;13.77;;
20000;SDS011;10161;41.188;-8.642;2022-09-09T06:05:58;13.80;;;11.97;;
20000;SDS011;10161;41.188;-8.642;2022-09-09T06:08:26;15.23;;;13.63;;
20000;SDS011;10161;41.188;-8.642;2022-09-09T06:10:53;15.07;;;13.47;;
20000;SDS011;10161;41.188;-8.642;2022-09-09T06:13:22;14.90;;;13.23;;
20000;SDS011;10161;41.188;-8.642;2022-09-09T06:15:49;14.67;;;13.17;;
20000;SDS011;10161;41.188;-8.642;2022-09-09T06:18:17;14.20;;;12.70;;
20000;SDS011;10161;41.188;-8.642;2022-09-09T06:20:52;13.93;;;12.53;;
20000;SDS011;10161;41.188;-8.642;2022-09-09T06:23:20;12.23;;;11.03;;
20000;SDS011;10161;41.188;-8.642;2022-09-09T06:25:47;12.80;;;10.27;;
20000;SDS011;10161;41.188;-8.642;2022-09-09T06:28:14;11.70;;;10.60;;
20000;SDS011;10161;41.188;-8.642;2022-09-09T06:30:42;12.60;;;11.20;;
20000;SDS011;10161;41.188;-8.642;2022-09-09T06:33:09;14.23;;;11.40;;
20000;SDS011;10161;41.188;-8.642;2022-09-09T06:35:36;13.20;;;11.90;;
20000;SDS011;10161;41.188;-8.642;2022-09-09T06:38:03;14.40;;;12.40;;
20000;SDS011;10161;41.188;-8.642;2022-09-09T06:40:30;12.40;;;11.20;;
20000;SDS011;10161;41.188;-8.642;2022-09-09T06:42:59;11.13;;;10.03;;
20000;SDS011;10161;41.188;-8.642;2022-09-09T06:45:26;14.13;;;11.43;;
20000;SDS011;10161;41.188;-8.642;2022-09-09T06:47:55;11.83;;;10.53;;
20000;SDS011;10161;41.188;-8.642;2022-09-09T06:50:22;11.80;;;10.63;;
20000;SDS011;10161;41.188;-8.642;2022-09-09T06:52:49;16.27;;;12.17;;
20000;SDS011;10161;41.188;-8.642;2022-09-09T06:55:16;16.10;;;11.80;;
20000;SDS011;10161;41.188;-8.642;2022-09-09T06:57:44;13.37;;;11.20;;
20000;SDS011;10161;41.188;-8.642;2022-09-09T07:00:11;13.37;;;11.97;;
20000;SDS011;10161;41.188;-8.642;2022-09-09T07:02:39;15.03;;;12.03;;
20000;SDS011;10161;41.188;-8.642;2022-09-09T07:05:09;15.00;;;12.43;;
20000;SDS011;10161;41.188;-8.642;2022-09-09T07:07:36;15.40;;;11.93;;
20000;SDS011;10161;41.188;-8.642;2022-09-09T07:10:03;16.10;;;13.20;;
20000;SDS011;10161;41.188;-8.642;2022-09-09T07:12:30;14.93;;;12.50;;
20000;SDS011;10161;41.188;-8.642;2022-09-09T07:14:57;18.57;;;12.83;;
20000;SDS011;10161;41.188;-8.642;2022-09-09T07:17:24;17.60;;;13.40;;
20000;SDS011;10161;41.188;-8.642;2022-09-09T07:19:51;16.30;;;12.83;;
20000;SDS011;10161;41.188;-8.642;2022-09-09T07:22:20;17.83;;;12.83;;
20000;SDS011;10161;41.188;-8.642;2022-09-09T07:24:47;19.43;;;15.40;;
20000;SDS011;10161;41.188;-8.642;2022-09-09T07:27:14;17.80;;;13.50;;
20000;SDS011;10161;41.188;-8.642;2022-09-09T07:29:41;13.80;;;12.00;;
20000;SDS011;10161;41.188;-8.642;2022-09-09T07:32:08;15.93;;;10.97;;
20000;SDS011;10161;41.188;-8.642;2022-09-09T07:34:35;13.90;;;10.00;;
20000;SDS011;10161;41.188;-8.642;2022-09-09T07:37:02;10.67;;;9.47;;
20000;SDS011;10161;41.188;-8.642;2022-09-09T07:39:30;12.23;;;10.40;;
20000;SDS011;10161;41.188;-8.642;2022-09-09T07:41:57;13.13;;;11.53;;
20000;SDS011;10161;41.188;-8.642;2022-09-09T07:44:24;19.93;;;12.87;;
20000;SDS011;10161;41.188;-8.642;2022-09-09T07:46:53;13.20;;;11.80;;
20000;SDS011;10161;41.188;-8.642;2022-09-09T07:49:20;24.10;;;13.70;;
20000;SDS011;10161;41.188;-8.642;2022-09-09T07:51:47;14.17;;;12.33;;
20000;SDS011;10161;41.188;-8.642;2022-09-09T07:54:15;17.80;;;13.83;;
20000;SDS011;10161;41.188;-8.642;2022-09-09T07:56:46;18.90;;;15.90;;
20000;SDS011;10161;41.188;-8.642;2022-09-09T07:59:14;16.63;;;14.70;;
20000;SDS011;10161;41.188;-8.642;2022-09-09T08:01:42;14.17;;;12.67;;
20000;SDS011;10161;41.188;-8.642;2022-09-09T08:04:11;17.67;;;14.00;;
20000;SDS011;10161;41.188;-8.642;2022-09-09T08:06:41;17.13;;;12.47;;
20000;SDS011;10161;41.188;-8.642;2022-09-09T08:09:09;14.30;;;12.07;;
20000;SDS011;10161;41.188;-8.642;2022-09-09T08:11:37;13.60;;;12.07;;
20000;SDS011;10161;41.188;-8.642;2022-09-09T08:14:06;17.83;;;14.60;;
20000;SDS011;10161;41.188;-8.642;2022-09-09T08:16:34;18.27;;;13.60;;
20000;SDS011;10161;41.188;-8.642;2022-09-09T08:19:03;19.70;;;16.30;;
20000;SDS011;10161;41.188;-8.642;2022-09-09T08:21:31;20.27;;;16.60;;
20000;SDS011;10161;41.188;-8.642;2022-09-09T08:23:59;17.87;;;15.10;;
20000;SDS011;10161;41.188;-8.642;2022-09-09T08:26:27;18.60;;;14.73;;
20000;SDS011;10161;41.188;-8.642;2022-09-09T08:28:55;15.90;;;12.43;;
20000;SDS011;10161;41.188;-8.642;2022-09-09T08:31:26;12.67;;;11.33;;
20000;SDS011;10161;41.188;-8.642;2022-09-09T08:33:54;13.07;;;11.67;;
20000;SDS011;10161;41.188;-8.642;2022-09-09T08:36:22;14.30;;;12.60;;
20000;SDS011;10161;41.188;-8.642;2022-09-09T08:38:53;11.30;;;10.20;;
20000;SDS011;10161;41.188;-8.642;2022-09-09T08:41:36;15.40;;;13.40;;
20000;SDS011;10161;41.188;-8.642;2022-09-09T08:44:13;13.20;;;11.90;;
20000;SDS011;10161;41.188;-8.642;2022-09-09T08:46:50;13.07;;;11.67;;
20000;SDS011;10161;41.188;-8.642;2022-09-09T08:49:31;15.47;;;13.73;;
20000;SDS011;10161;41.188;-8.642;2022-09-09T08:52:08;18.37;;;16.20;;
20000;SDS011;10161;41.188;-8.642;2022-09-09T08:54:41;19.70;;;15.70;;
20000;SDS011;10161;41.188;-8.642;2022-09-09T08:57:09;18.80;;;16.90;;
20000;SDS011;10161;41.188;-8.642;2022-09-09T08:59:38;18.07;;;16.20;;
20000;SDS011;10161;41.188;-8.642;2022-09-09T09:02:07;13.97;;;12.57;;
20000;SDS011;10161;41.188;-8.642;2022-09-09T09:04:46;13.97;;;11.27;;
20000;SDS011;10161;41.188;-8.642;2022-09-09T09:07:23;12.83;;;11.40;;
20000;SDS011;10161;41.188;-8.642;2022-09-09T09:09:57;17.83;;;15.93;;
20000;SDS011;10161;41.188;-8.642;2022-09-09T09:12:29;22.50;;;17.77;;
20000;SDS011;10161;41.188;-8.642;2022-09-09T09:14:59;27.40;;;22.60;;
20000;SDS011;10161;41.188;-8.642;2022-09-09T09:17:28;22.63;;;18.93;;
20000;SDS011;10161;41.188;-8.642;2022-09-09T09:19:58;19.83;;;17.83;;
20000;SDS011;10161;41.188;-8.642;2022-09-09T09:22:26;27.17;;;23.00;;
20000;SDS011;10161;41.188;-8.642;2022-09-09T09:25:00;33.80;;;25.07;;
20000;SDS011;10161;41.188;-8.642;2022-09-09T09:27:34;33.97;;;25.30;;
20000;SDS011;10161;41.188;-8.642;2022-09-09T09:30:05;31.27;;;25.90;;
20000;SDS011;10161;41.188;-8.642;2022-09-09T09:32:42;27.40;;;22.80;;
20000;SDS011;10161;41.188;-8.642;2022-09-09T09:35:13;27.13;;;23.33;;
20000;SDS011;10161;41.188;-8.642;2022-09-09T09:37:41;26.20;;;22.10;;
20000;SDS011;10161;41.188;-8.642;2022-09-09T09:40:10;24.53;;;21.23;;
20000;SDS011;10161;41.188;-8.642;2022-09-09T09:42:37;24.43;;;20.93;;
20000;SDS011;10161;41.188;-8.642;2022-09-09T09:45:08;20.30;;;17.40;;
20000;SDS011;10161;41.188;-8.642;2022-09-09T09:47:44;29.27;;;23.17;;
20000;SDS011;10161;41.188;-8.642;2022-09-09T09:50:18;24.13;;;21.63;;
20000;SDS011;10161;41.188;-8.642;2022-09-09T09:52:53;25.37;;;19.33;;
20000;SDS011;10161;41.188;-8.642;2022-09-09T09:55:20;23.47;;;21.00;;
20000;SDS011;10161;41.188;-8.642;2022-09-09T09:57:49;22.60;;;18.60;;
20000;SDS011;10161;41.188;-8.642;2022-09-09T10:00:17;27.43;;;23.17;;
20000;SDS011;10161;41.188;-8.642;2022-09-09T10:02:47;24.27;;;21.37;;
20000;SDS011;10161;41.188;-8.642;2022-09-09T10:05:17;25.90;;;19.53;;
20000;SDS011;10161;41.188;-8.642;2022-09-09T10:07:45;19.87;;;16.67;;
20000;SDS011;10161;41.188;-8.642;2022-09-09T10:10:14;21.13;;;18.80;;
20000;SDS011;10161;41.188;-8.642;2022-09-09T10:12:46;29.37;;;23.00;;
20000;SDS011;10161;41.188;-8.642;2022-09-09T10:15:23;28.73;;;23.40;;
20000;SDS011;10161;41.188;-8.642;2022-09-09T10:18:00;29.80;;;23.47;;
20000;SDS011;10161;41.188;-8.642;2022-09-09T10:20:37;30.10;;;19.80;;
20000;SDS011;10161;41.188;-8.642;2022-09-09T10:23:13;25.10;;;17.47;;
20000;SDS011;10161;41.188;-8.642;2022-09-09T10:25:59;23.20;;;20.40;;
20000;SDS011;10161;41.188;-8.642;2022-09-09T10:28:38;25.00;;;20.83;;
20000;SDS011;10161;41.188;-8.642;2022-09-09T10:31:17;24.50;;;21.33;;
20000;SDS011;10161;41.188;-8.642;2022-09-09T10:33:50;31.10;;;22.40;;
20000;SDS011;10161;41.188;-8.642;2022-09-09T10:36:19;33.40;;;24.30;;
20000;SDS011;10161;41.188;-8.642;2022-09-09T10:38:47;30.60;;;23.67;;
20000;SDS011;10161;41.188;-8.642;2022-09-09T10:41:19;34.10;;;23.27;;
20000;SDS011;10161;41.188;-8.642;2022-09-09T10:44:00;40.83;;;24.80;;
20000;SDS011;10161;41.188;-8.642;2022-09-09T10:49:59;31.70;;;23.83;;
20000;SDS011;10161;41.188;-8.642;2022-09-09T10:52:38;28.43;;;20.70;;
20000;SDS011;10161;41.188;-8.642;2022-09-09T10:55:10;35.23;;;25.73;;
20000;SDS011;10161;41.188;-8.642;2022-09-09T10:57:40;31.87;;;24.23;;
20000;SDS011;10161;41.188;-8.642;2022-09-09T11:00:14;31.37;;;24.60;;
20000;SDS011;10161;41.188;-8.642;2022-09-09T11:02:43;29.37;;;23.13;;
20000;SDS011;10161;41.188;-8.642;2022-09-09T11:05:14;37.67;;;25.77;;
20000;SDS011;10161;41.188;-8.642;2022-09-09T11:07:44;31.33;;;21.90;;
20000;SDS011;10161;41.188;-8.642;2022-09-09T11:10:17;30.80;;;22.97;;
20000;SDS011;10161;41.188;-8.642;2022-09-09T11:12:56;31.93;;;23.20;;
20000;SDS011;10161;41.188;-8.642;2022-09-09T11:15:28;30.60;;;23.80;;
20000;SDS011;10161;41.188;-8.642;2022-09-09T11:17:58;29.40;;;22.80;;
20000;SDS011;10161;41.188;-8.642;2022-09-09T11:20:30;26.20;;;21.20;;
20000;SDS011;10161;41.188;-8.642;2022-09-09T11:22:58;29.63;;;22.70;;
20000;SDS011;10161;41.188;-8.642;2022-09-09T11:25:29;30.40;;;22.90;;
20000;SDS011;10161;41.188;-8.642;2022-09-09T11:28:05;31.50;;;24.07;;
20000;SDS011;10161;41.188;-8.642;2022-09-09T11:30:45;29.87;;;23.17;;
20000;SDS011;10161;41.188;-8.642;2022-09-09T11:33:26;29.73;;;23.57;;
20000;SDS011;10161;41.188;-8.642;2022-09-09T11:36:25;32.93;;;24.40;;
20000;SDS011;10161;41.188;-8.642;2022-09-09T11:39:01;27.63;;;21.83;;
20000;SDS011;10161;41.188;-8.642;2022-09-09T11:41:33;30.60;;;23.57;;
20000;SDS011;10161;41.188;-8.642;2022-09-09T11:44:08;26.57;;;20.60;;
20000;SDS011;10161;41.188;-8.642;2022-09-09T11:46:37;29.37;;;23.20;;
20000;SDS011;10161;41.188;-8.642;2022-09-09T11:49:05;29.60;;;25.30;;
20000;SDS011;10161;41.188;-8.642;2022-09-09T11:51:34;31.33;;;23.70;;
20000;SDS011;10161;41.188;-8.642;2022-09-09T11:54:02;30.73;;;24.10;;
20000;SDS011;10161;41.188;-8.642;2022-09-09T11:56:49;21.83;;;19.47;;
20000;SDS011;10161;41.188;-8.642;2022-09-09T11:59:19;30.90;;;22.57;;
20000;SDS011;10161;41.188;-8.642;2022-09-09T12:01:49;28.37;;;22.00;;
20000;SDS011;10161;41.188;-8.642;2022-09-09T12:07:01;28.60;;;23.07;;
20000;SDS011;10161;41.188;-8.642;2022-09-09T12:09:43;22.83;;;20.40;;
20000;SDS011;10161;41.188;-8.642;2022-09-09T12:12:24;26.33;;;21.50;;
20000;SDS011;10161;41.188;-8.642;2022-09-09T12:15:00;26.00;;;23.20;;
20000;SDS011;10161;41.188;-8.642;2022-09-09T12:17:29;27.77;;;22.03;;
20000;SDS011;10161;41.188;-8.642;2022-09-09T12:20:03;24.87;;;21.80;;
20000;SDS011;10161;41.188;-8.642;2022-09-09T12:22:40;28.37;;;21.67;;
20000;SDS011;10161;41.188;-8.642;2022-09-09T12:25:16;25.77;;;22.83;;
20000;SDS011;10161;41.188;-8.642;2022-09-09T12:27:50;24.50;;;21.53;;
20000;SDS011;10161;41.188;-8.642;2022-09-09T12:30:27;28.17;;;23.20;;
20000;SDS011;10161;41.188;-8.642;2022-09-09T12:32:59;27.80;;;22.57;;
20000;SDS011;10161;41.188;-8.642;2022-09-09T12:35:27;28.50;;;23.17;;
20000;SDS011;10161;41.188;-8.642;2022-09-09T12:37:57;27.50;;;22.60;;
20000;SDS011;10161;41.188;-8.642;2022-09-09T12:40:26;27.13;;;22.77;;
20000;SDS011;10161;41.188;-8.642;2022-09-09T12:42:54;29.03;;;23.57;;
20000;SDS011;10161;41.188;-8.642;2022-09-09T12:45:22;31.17;;;24.43;;
20000;SDS011;10161;41.188;-8.642;2022-09-09T12:47:51;28.37;;;22.50;;
20000;SDS011;10161;41.188;-8.642;2022-09-09T12:50:20;25.27;;;20.93;;
20000;SDS011;10161;41.188;-8.642;2022-09-09T12:52:50;30.43;;;22.77;;
20000;SDS011;10161;41.188;-8.642;2022-09-09T12:55:20;28.67;;;23.97;;
20000;SDS011;10161;41.188;-8.642;2022-09-09T12:57:50;23.20;;;20.23;;
20000;SDS011;10161;41.188;-8.642;2022-09-09T13:00:18;26.90;;;21.00;;
20000;SDS011;10161;41.188;-8.642;2022-09-09T13:02:49;28.60;;;22.97;;
20000;SDS011;10161;41.188;-8.642;2022-09-09T13:05:18;23.33;;;20.43;;
20000;SDS011;10161;41.188;-8.642;2022-09-09T13:07:47;26.20;;;23.40;;
20000;SDS011;10161;41.188;-8.642;2022-09-09T13:10:14;24.70;;;22.17;;
20000;SDS011;10161;41.188;-8.642;2022-09-09T13:12:45;24.33;;;21.50;;
20000;SDS011;10161;41.188;-8.642;2022-09-09T13:15:14;20.43;;;17.97;;
20000;SDS011;10161;41.188;-8.642;2022-09-09T13:17:49;20.63;;;18.47;;
20000;SDS011;10161;41.188;-8.642;2022-09-09T13:20:18;20.43;;;18.20;;
20000;SDS011;10161;41.188;-8.642;2022-09-09T13:22:46;19.80;;;17.70;;
20000;SDS011;10161;41.188;-8.642;2022-09-09T13:25:21;23.50;;;17.57;;
20000;SDS011;10161;41.188;-8.642;2022-09-09T13:27:54;23.97;;;18.63;;
20000;SDS011;10161;41.188;-8.642;2022-09-09T13:30:23;20.77;;;18.10;;
20000;SDS011;10161;41.188;-8.642;2022-09-09T13:33:02;19.77;;;16.93;;
20000;SDS011;10161;41.188;-8.642;2022-09-09T13:35:30;16.03;;;14.10;;
20000;SDS011;10161;41.188;-8.642;2022-09-09T13:37:58;17.37;;;14.37;;
20000;SDS011;10161;41.188;-8.642;2022-09-09T13:40:26;19.43;;;14.67;;
20000;SDS011;10161;41.188;-8.642;2022-09-09T13:42:55;17.93;;;15.83;;
20000;SDS011;10161;41.188;-8.642;2022-09-09T13:45:23;19.77;;;16.70;;
20000;SDS011;10161;41.188;-8.642;2022-09-09T13:47:52;13.87;;;12.10;;
20000;SDS011;10161;41.188;-8.642;2022-09-09T13:50:21;14.77;;;12.97;;
20000;SDS011;10161;41.188;-8.642;2022-09-09T13:52:48;14.63;;;13.10;;
20000;SDS011;10161;41.188;-8.642;2022-09-09T13:55:16;15.10;;;12.50;;
20000;SDS011;10161;41.188;-8.642;2022-09-09T13:57:50;13.23;;;11.83;;
20000;SDS011;10161;41.188;-8.642;2022-09-09T14:00:19;13.63;;;11.63;;
20000;SDS011;10161;41.188;-8.642;2022-09-09T14:02:47;11.60;;;10.50;;
20000;SDS011;10161;41.188;-8.642;2022-09-09T14:05:14;13.70;;;12.30;;
20000;SDS011;10161;41.188;-8.642;2022-09-09T14:07:44;19.13;;;13.93;;
20000;SDS011;10161;41.188;-8.642;2022-09-09T14:10:11;14.90;;;12.70;;
20000;SDS011;10161;41.188;-8.642;2022-09-09T14:12:39;12.33;;;11.13;;
20000;SDS011;10161;41.188;-8.642;2022-09-09T14:15:06;16.97;;;12.30;;
20000;SDS011;10161;41.188;-8.642;2022-09-09T14:17:37;16.53;;;12.50;;
20000;SDS011;10161;41.188;-8.642;2022-09-09T14:20:04;10.53;;;9.43;;
20000;SDS011;10161;41.188;-8.642;2022-09-09T14:22:33;11.43;;;10.30;;
20000;SDS011;10161;41.188;-8.642;2022-09-09T14:25:00;12.30;;;9.67;;
20000;SDS011;10161;41.188;-8.642;2022-09-09T14:27:27;11.73;;;10.50;;
20000;SDS011;10161;41.188;-8.642;2022-09-09T14:29:55;15.87;;;13.40;;
20000;SDS011;10161;41.188;-8.642;2022-09-09T14:32:25;10.90;;;9.10;;
20000;SDS011;10161;41.188;-8.642;2022-09-09T14:34:54;10.53;;;9.37;;
20000;SDS011;10161;41.188;-8.642;2022-09-09T14:37:22;10.90;;;9.47;;